createdAt,value
2023-04-19T00:00:57.873Z,506.00
2023-04-19T00:01:57.954Z,508.00
2023-04-19T00:02:58.157Z,508.00
2023-04-19T00:03:58.197Z,506.00
2023-04-19T00:04:58.199Z,503.00
2023-04-19T00:05:58.149Z,504.00
2023-04-19T00:06:58.291Z,503.00
2023-04-19T00:07:58.285Z,504.00
2023-04-19T00:08:58.355Z,504.00
2023-04-19T00:09:58.410Z,501.00
2023-04-19T00:10:58.489Z,499.00
2023-04-19T00:11:58.543Z,500.00
2023-04-19T00:12:58.603Z,501.00
2023-04-19T00:13:58.691Z,500.00
2023-04-19T00:14:58.761Z,500.00
2023-04-19T00:15:58.840Z,503.00
2023-04-19T00:16:58.966Z,502.00
2023-04-19T00:17:59.024Z,504.00
2023-04-19T00:18:59.018Z,506.00
2023-04-19T00:19:59.088Z,505.00
2023-04-19T00:20:59.152Z,503.00
2023-04-19T00:21:59.238Z,506.00
2023-04-19T00:22:59.344Z,508.00
2023-04-19T00:23:59.342Z,508.00
2023-04-19T00:24:59.401Z,510.00
2023-04-19T00:25:59.496Z,509.00
2023-04-19T00:26:59.549Z,510.00
2023-04-19T00:27:59.632Z,508.00
2023-04-19T00:28:59.702Z,510.00
2023-04-19T00:29:59.754Z,508.00
2023-04-19T00:30:59.881Z,506.00
2023-04-19T00:31:59.917Z,507.00
2023-04-19T00:33:00.030Z,507.00
2023-04-19T00:34:00.049Z,505.00
2023-04-19T00:35:00.125Z,504.00
2023-04-19T00:36:00.176Z,505.00
2023-04-19T00:37:00.270Z,505.00
2023-04-19T00:38:00.321Z,504.00
2023-04-19T00:39:00.388Z,504.00
2023-04-19T00:40:00.399Z,505.00
2023-04-19T00:41:00.397Z,502.00
2023-04-19T00:42:00.419Z,501.00
2023-04-19T00:43:01.179Z,501.00
2023-04-19T00:44:00.420Z,501.00
2023-04-19T00:45:00.433Z,501.00
2023-04-19T00:46:00.481Z,500.00
2023-04-19T00:47:00.462Z,502.00
2023-04-19T00:48:00.514Z,502.00
2023-04-19T00:49:00.485Z,505.00
2023-04-19T00:50:00.575Z,505.00
2023-04-19T00:51:00.568Z,509.00
2023-04-19T00:52:00.636Z,509.00
2023-04-19T00:53:00.699Z,505.00
2023-04-19T00:54:00.815Z,505.00
2023-04-19T00:55:00.855Z,506.00
2023-04-19T00:56:00.934Z,506.00
2023-04-19T00:57:00.997Z,506.00
2023-04-19T00:58:01.105Z,505.00
2023-04-19T00:59:01.167Z,504.00
2023-04-19T01:00:01.233Z,505.00
2023-04-19T01:01:01.421Z,504.00
2023-04-19T01:02:01.758Z,504.00
2023-04-19T01:03:01.595Z,505.00
2023-04-19T01:04:01.728Z,505.00
2023-04-19T01:05:01.579Z,506.00
2023-04-19T01:06:01.684Z,508.00
2023-04-19T01:07:01.762Z,507.00
2023-04-19T01:08:01.931Z,506.00
2023-04-19T01:09:01.943Z,508.00
2023-04-19T01:10:02.088Z,508.00
2023-04-19T01:11:02.031Z,508.00
2023-04-19T01:12:02.151Z,509.00
2023-04-19T01:13:02.179Z,510.00
2023-04-19T01:14:02.311Z,507.00
2023-04-19T01:15:02.340Z,504.00
2023-04-19T01:16:02.443Z,504.00
2023-04-19T01:17:02.472Z,506.00
2023-04-19T01:18:02.594Z,506.00
2023-04-19T01:19:02.655Z,505.00
2023-04-19T01:20:02.692Z,508.00
2023-04-19T01:21:02.876Z,511.00
2023-04-19T01:22:02.828Z,511.00
2023-04-19T01:23:02.928Z,509.00
2023-04-19T01:24:03.028Z,505.00
2023-04-19T01:25:03.070Z,507.00
2023-04-19T01:26:03.145Z,506.00
2023-04-19T01:27:03.219Z,506.00
2023-04-19T01:28:03.288Z,506.00
2023-04-19T01:29:03.366Z,505.00
2023-04-19T01:30:03.447Z,507.00
2023-04-19T01:31:03.552Z,507.00
2023-04-19T01:32:03.582Z,507.00
2023-04-19T01:33:03.722Z,505.00
2023-04-19T01:34:03.737Z,504.00
2023-04-19T01:35:03.737Z,504.00
2023-04-19T01:36:03.743Z,504.00
2023-04-19T01:37:03.776Z,503.00
2023-04-19T01:38:03.808Z,504.00
2023-04-19T01:39:03.784Z,505.00
2023-04-19T01:40:03.812Z,504.00
2023-04-19T01:41:03.800Z,501.00
2023-04-19T01:42:03.811Z,500.00
2023-04-19T01:43:03.820Z,501.00
2023-04-19T01:44:03.853Z,501.00
2023-04-19T01:45:03.901Z,503.00
2023-04-19T01:46:03.962Z,504.00
2023-04-19T01:47:04.162Z,503.00
2023-04-19T01:48:04.182Z,501.00
2023-04-19T01:49:04.206Z,501.00
2023-04-19T01:50:04.267Z,503.00
2023-04-19T01:51:04.348Z,503.00
2023-04-19T01:52:04.458Z,503.00
2023-04-19T01:53:04.482Z,505.00
2023-04-19T01:54:04.605Z,503.00
2023-04-19T01:55:04.702Z,500.00
2023-04-19T01:56:04.767Z,501.00
2023-04-19T01:57:04.806Z,501.00
2023-04-19T01:58:04.874Z,502.00
2023-04-19T01:59:04.940Z,500.00
2023-04-19T02:00:05.038Z,502.00
2023-04-19T02:01:05.131Z,502.00
2023-04-19T02:02:05.223Z,500.00
2023-04-19T02:03:05.350Z,502.00
2023-04-19T02:04:05.404Z,501.00
2023-04-19T02:05:05.359Z,500.00
2023-04-19T02:06:05.454Z,501.00
2023-04-19T02:07:05.537Z,501.00
2023-04-19T02:08:05.578Z,500.00
2023-04-19T02:09:05.684Z,500.00
2023-04-19T02:10:05.778Z,498.00
2023-04-19T02:11:05.798Z,499.00
2023-04-19T02:12:05.879Z,501.00
2023-04-19T02:13:05.937Z,503.00
2023-04-19T02:14:06.019Z,503.00
2023-04-19T02:15:06.092Z,502.00
2023-04-19T02:16:06.259Z,501.00
2023-04-19T02:17:06.221Z,501.00
2023-04-19T02:18:06.356Z,500.00
2023-04-19T02:19:06.396Z,499.00
2023-04-19T02:20:06.477Z,498.00
2023-04-19T02:21:06.540Z,499.00
2023-04-19T02:22:06.616Z,500.00
2023-04-19T02:23:06.680Z,499.00
2023-04-19T02:24:06.753Z,498.00
2023-04-19T02:25:06.820Z,497.00
2023-04-19T02:26:06.890Z,499.00
2023-04-19T02:27:07.000Z,500.00
2023-04-19T02:28:07.102Z,501.00
2023-04-19T02:29:07.239Z,502.00
2023-04-19T02:30:07.192Z,502.00
2023-04-19T02:31:07.106Z,502.00
2023-04-19T02:32:07.171Z,500.00
2023-04-19T02:33:07.172Z,499.00
2023-04-19T02:34:07.149Z,498.00
2023-04-19T02:35:07.161Z,498.00
2023-04-19T02:36:07.155Z,501.00
2023-04-19T02:37:07.166Z,505.00
2023-04-19T02:38:07.231Z,504.00
2023-04-19T02:39:07.300Z,500.00
2023-04-19T02:40:07.426Z,493.00
2023-04-19T02:41:07.462Z,486.00
2023-04-19T02:42:07.535Z,482.00
2023-04-19T02:43:07.628Z,480.00
2023-04-19T02:44:07.703Z,479.00
2023-04-19T02:45:07.833Z,479.00
2023-04-19T02:46:07.906Z,480.00
2023-04-19T02:47:07.986Z,481.00
2023-04-19T02:48:08.052Z,481.00
2023-04-19T02:49:08.092Z,480.00
2023-04-19T02:50:08.128Z,477.00
2023-04-19T02:51:08.165Z,473.00
2023-04-19T02:52:08.192Z,471.00
2023-04-19T02:53:08.237Z,471.00
2023-04-19T02:54:08.294Z,470.00
2023-04-19T02:55:08.307Z,470.00
2023-04-19T02:56:08.319Z,469.00
2023-04-19T02:57:08.382Z,468.00
2023-04-19T02:58:08.420Z,464.00
2023-04-19T02:59:08.472Z,460.00
2023-04-19T03:00:08.514Z,461.00
2023-04-19T03:01:08.545Z,459.00
2023-04-19T03:02:08.633Z,459.00
2023-04-19T03:03:08.697Z,456.00
2023-04-19T03:04:08.661Z,452.00
2023-04-19T03:05:08.651Z,451.00
2023-04-19T03:06:08.699Z,450.00
2023-04-19T03:07:08.745Z,449.00
2023-04-19T03:08:08.735Z,448.00
2023-04-19T03:09:08.776Z,447.00
2023-04-19T03:10:08.812Z,445.00
2023-04-19T03:11:08.845Z,444.00
2023-04-19T03:12:08.886Z,441.00
2023-04-19T03:13:08.917Z,443.00
2023-04-19T03:14:08.987Z,443.00
2023-04-19T03:15:08.981Z,444.00
2023-04-19T03:16:09.029Z,445.00
2023-04-19T03:17:09.018Z,444.00
2023-04-19T03:18:09.058Z,446.00
2023-04-19T03:19:09.124Z,445.00
2023-04-19T03:20:09.058Z,445.00
2023-04-19T03:21:09.095Z,443.00
2023-04-19T03:22:09.093Z,444.00
2023-04-19T03:23:09.100Z,442.00
2023-04-19T03:24:09.148Z,441.00
2023-04-19T03:25:09.132Z,441.00
2023-04-19T03:26:09.131Z,442.00
2023-04-19T03:27:09.167Z,441.00
2023-04-19T03:28:09.166Z,442.00
2023-04-19T03:29:09.204Z,441.00
2023-04-19T03:30:09.208Z,441.00
2023-04-19T03:31:09.222Z,440.00
2023-04-19T03:32:09.233Z,439.00
2023-04-19T03:33:09.371Z,439.00
2023-04-19T03:34:09.244Z,438.00
2023-04-19T03:35:09.275Z,437.00
2023-04-19T03:36:09.285Z,436.00
2023-04-19T03:37:09.292Z,437.00
2023-04-19T03:38:09.316Z,436.00
2023-04-19T03:39:09.343Z,437.00
2023-04-19T03:40:09.321Z,433.00
2023-04-19T03:41:09.354Z,433.00
2023-04-19T03:42:09.361Z,430.00
2023-04-19T03:43:09.380Z,428.00
2023-04-19T03:44:09.395Z,427.00
2023-04-19T03:45:09.404Z,426.00
2023-04-19T03:46:09.414Z,427.00
2023-04-19T03:47:09.416Z,427.00
2023-04-19T03:48:09.506Z,428.00
2023-04-19T03:49:09.436Z,426.00
2023-04-19T03:50:09.454Z,428.00
2023-04-19T03:51:09.480Z,427.00
2023-04-19T03:52:09.509Z,425.00
2023-04-19T03:53:09.475Z,426.00
2023-04-19T03:54:09.520Z,426.00
2023-04-19T03:55:09.519Z,425.00
2023-04-19T03:56:09.524Z,425.00
2023-04-19T03:57:09.526Z,421.00
2023-04-19T03:58:09.563Z,423.00
2023-04-19T03:59:09.605Z,423.00
2023-04-19T04:00:09.583Z,420.00
2023-04-19T04:01:09.590Z,423.00
2023-04-19T04:02:09.679Z,423.00
2023-04-19T04:03:09.865Z,422.00
2023-04-19T04:04:09.820Z,420.00
2023-04-19T04:05:09.823Z,422.00
2023-04-19T04:06:09.664Z,423.00
2023-04-19T04:07:09.672Z,424.00
2023-04-19T04:08:09.670Z,427.00
2023-04-19T04:09:09.705Z,428.00
2023-04-19T04:10:09.717Z,429.00
2023-04-19T04:11:09.732Z,428.00
2023-04-19T04:12:09.749Z,428.00
2023-04-19T04:13:09.780Z,429.00
2023-04-19T04:14:09.778Z,427.00
2023-04-19T04:15:09.793Z,428.00
2023-04-19T04:16:09.851Z,428.00
2023-04-19T04:17:09.818Z,426.00
2023-04-19T04:18:09.855Z,428.00
2023-04-19T04:19:09.853Z,428.00
2023-04-19T04:20:09.856Z,431.00
2023-04-19T04:21:09.894Z,434.00
2023-04-19T04:22:09.904Z,433.00
2023-04-19T04:23:09.892Z,432.00
2023-04-19T04:24:09.929Z,432.00
2023-04-19T04:25:09.931Z,430.00
2023-04-19T04:26:09.953Z,431.00
2023-04-19T04:27:09.947Z,435.00
2023-04-19T04:28:09.965Z,436.00
2023-04-19T04:29:09.973Z,437.00
2023-04-19T04:30:09.998Z,438.00
2023-04-19T04:31:10.027Z,437.00
2023-04-19T04:32:10.212Z,439.00
2023-04-19T04:33:10.025Z,441.00
2023-04-19T04:34:10.042Z,441.00
2023-04-19T04:35:10.062Z,440.00
2023-04-19T04:36:10.056Z,442.00
2023-04-19T04:37:10.078Z,440.00
2023-04-19T04:38:21.537Z,443.00
2023-04-19T04:39:11.199Z,447.00
2023-04-19T04:40:10.105Z,446.00
2023-04-19T04:41:10.103Z,446.00
2023-04-19T04:42:10.142Z,448.00
2023-04-19T04:43:10.159Z,446.00
2023-04-19T04:44:12.942Z,446.00
2023-04-19T04:45:10.163Z,448.00
2023-04-19T04:46:10.242Z,451.00
2023-04-19T04:47:10.199Z,453.00
2023-04-19T04:48:10.195Z,453.00
2023-04-19T04:49:10.233Z,451.00
2023-04-19T04:50:10.227Z,452.00
2023-04-19T04:51:10.229Z,454.00
2023-04-19T04:52:10.248Z,453.00
2023-04-19T04:53:12.290Z,452.00
2023-04-19T04:54:10.470Z,452.00
2023-04-19T04:55:10.485Z,452.00
2023-04-19T04:56:10.522Z,453.00
2023-04-19T04:57:10.533Z,451.00
2023-04-19T04:58:10.555Z,452.00
2023-04-19T04:59:10.578Z,454.00
2023-04-19T05:00:10.602Z,455.00
2023-04-19T05:01:10.660Z,456.00
2023-04-19T05:02:10.723Z,457.00
2023-04-19T05:03:10.721Z,460.00
2023-04-19T05:04:10.758Z,459.00
2023-04-19T05:05:10.720Z,461.00
2023-04-19T05:06:10.718Z,462.00
2023-04-19T05:07:10.750Z,465.00
2023-04-19T05:08:10.776Z,466.00
2023-04-19T05:09:10.785Z,466.00
2023-04-19T05:10:10.824Z,466.00
2023-04-19T05:11:10.836Z,467.00
2023-04-19T05:12:10.852Z,468.00
2023-04-19T05:13:10.924Z,469.00
2023-04-19T05:14:10.890Z,469.00
2023-04-19T05:15:10.909Z,468.00
2023-04-19T05:16:10.975Z,470.00
2023-04-19T05:17:10.949Z,469.00
2023-04-19T05:18:10.979Z,471.00
2023-04-19T05:19:10.981Z,472.00
2023-04-19T05:20:10.999Z,472.00
2023-04-19T05:21:11.004Z,473.00
2023-04-19T05:22:11.028Z,469.00
2023-04-19T05:23:11.062Z,468.00
2023-04-19T05:24:11.078Z,468.00
2023-04-19T05:25:11.099Z,468.00
2023-04-19T05:26:11.146Z,467.00
2023-04-19T05:27:11.125Z,464.00
2023-04-19T05:28:11.154Z,463.00
2023-04-19T05:29:11.172Z,463.00
2023-04-19T05:30:11.205Z,463.00
2023-04-19T05:31:11.242Z,461.00
2023-04-19T05:32:11.229Z,462.00
2023-04-19T05:33:11.313Z,464.00
2023-04-19T05:34:11.295Z,465.00
2023-04-19T05:35:11.287Z,465.00
2023-04-19T05:36:11.332Z,462.00
2023-04-19T05:37:11.334Z,463.00
2023-04-19T05:38:11.339Z,466.00
2023-04-19T05:39:12.318Z,469.00
2023-04-19T05:40:11.386Z,467.00
2023-04-19T05:41:11.394Z,467.00
2023-04-19T05:42:11.626Z,465.00
2023-04-19T05:43:14.317Z,464.00
2023-04-19T05:44:11.461Z,462.00
2023-04-19T05:45:11.473Z,461.00
2023-04-19T05:46:11.625Z,460.00
2023-04-19T05:47:11.546Z,464.00
2023-04-19T05:48:11.825Z,822.00
2023-04-19T05:49:11.565Z,631.00
2023-04-19T05:50:11.613Z,493.00
2023-04-19T05:51:12.356Z,480.00
2023-04-19T05:52:11.632Z,478.00
2023-04-19T05:53:11.678Z,472.00
2023-04-19T05:54:11.680Z,468.00
2023-04-19T05:55:11.730Z,467.00
2023-04-19T05:56:11.757Z,469.00
2023-04-19T05:57:11.799Z,469.00
2023-04-19T05:58:11.759Z,467.00
2023-04-19T05:59:11.830Z,467.00
2023-04-19T06:00:11.827Z,464.00
2023-04-19T06:01:11.875Z,461.00
2023-04-19T06:02:11.958Z,460.00
2023-04-19T06:03:12.024Z,459.00
2023-04-19T06:04:12.018Z,458.00
2023-04-19T06:05:12.090Z,459.00
2023-04-19T06:06:11.990Z,460.00
2023-04-19T06:07:26.461Z,460.00
2023-04-19T06:08:12.978Z,461.00
2023-04-19T06:09:12.057Z,459.00
2023-04-19T06:10:12.039Z,460.00
2023-04-19T06:11:23.386Z,458.00
2023-04-19T06:12:13.062Z,456.00
2023-04-19T06:13:12.110Z,456.00
2023-04-19T06:14:12.109Z,452.00
2023-04-19T06:15:12.147Z,451.00
2023-04-19T06:16:12.150Z,452.00
2023-04-19T06:17:12.220Z,451.00
2023-04-19T06:18:19.537Z,450.00
2023-04-19T06:19:13.210Z,447.00
2023-04-19T06:20:12.235Z,447.00
2023-04-19T06:21:12.243Z,446.00
2023-04-19T06:22:12.470Z,443.00
2023-04-19T06:23:12.279Z,444.00
2023-04-19T06:24:12.346Z,443.00
2023-04-19T06:25:13.357Z,441.00
2023-04-19T06:26:12.403Z,443.00
2023-04-19T06:27:12.369Z,442.00
2023-04-19T06:28:12.407Z,441.00
2023-04-19T06:29:12.434Z,439.00
2023-04-19T06:30:13.912Z,440.00
2023-04-19T06:31:12.539Z,443.00
2023-04-19T06:32:12.480Z,447.00
2023-04-19T06:33:12.506Z,446.00
2023-04-19T06:34:12.526Z,446.00
2023-04-19T06:35:12.560Z,443.00
2023-04-19T06:36:12.568Z,442.00
2023-04-19T06:37:12.620Z,441.00
2023-04-19T06:38:12.667Z,440.00
2023-04-19T06:39:12.692Z,439.00
2023-04-19T06:40:12.752Z,440.00
2023-04-19T06:41:12.833Z,440.00
2023-04-19T06:42:12.885Z,439.00
2023-04-19T06:43:12.909Z,438.00
2023-04-19T06:44:13.026Z,435.00
2023-04-19T06:45:13.019Z,436.00
2023-04-19T06:46:13.119Z,435.00
2023-04-19T06:47:13.205Z,434.00
2023-04-19T06:48:13.261Z,435.00
2023-04-19T06:49:13.231Z,434.00
2023-04-19T06:50:13.302Z,433.00
2023-04-19T06:51:13.377Z,435.00
2023-04-19T06:52:13.399Z,436.00
2023-04-19T06:53:13.430Z,435.00
2023-04-19T06:54:13.487Z,436.00
2023-04-19T06:55:13.549Z,436.00
2023-04-19T06:56:13.590Z,436.00
2023-04-19T06:57:13.652Z,437.00
2023-04-19T06:58:13.703Z,436.00
2023-04-19T06:59:13.793Z,434.00
2023-04-19T07:00:13.890Z,436.00
2023-04-19T07:01:13.872Z,438.00
2023-04-19T07:02:13.975Z,442.00
2023-04-19T07:03:14.136Z,444.00
2023-04-19T07:04:14.180Z,444.00
2023-04-19T07:05:14.003Z,445.00
2023-04-19T07:06:13.996Z,445.00
2023-04-19T07:07:14.002Z,446.00
2023-04-19T07:08:14.076Z,447.00
2023-04-19T07:09:14.076Z,445.00
2023-04-19T07:10:14.089Z,442.00
2023-04-19T07:11:14.093Z,445.00
2023-04-19T07:12:14.121Z,444.00
2023-04-19T07:13:14.255Z,445.00
2023-04-19T07:14:15.200Z,445.00
2023-04-19T07:15:14.211Z,448.00
2023-04-19T07:16:14.249Z,446.00
2023-04-19T07:17:14.225Z,445.00
2023-04-19T07:18:14.254Z,446.00
2023-04-19T07:19:14.387Z,445.00
2023-04-19T07:20:14.311Z,442.00
2023-04-19T07:21:14.339Z,443.00
2023-04-19T07:22:15.200Z,447.00
2023-04-19T07:23:14.397Z,447.00
2023-04-19T07:24:14.676Z,445.00
2023-04-19T07:25:15.045Z,443.00
2023-04-19T07:26:14.483Z,442.00
2023-04-19T07:27:14.873Z,443.00
2023-04-19T07:28:14.501Z,443.00
2023-04-19T07:29:14.553Z,443.00
2023-04-19T07:30:14.574Z,447.00
2023-04-19T07:31:14.571Z,454.00
2023-04-19T07:32:14.617Z,456.00
2023-04-19T07:33:14.720Z,457.00
2023-04-19T07:34:14.912Z,460.00
2023-04-19T07:35:14.720Z,465.00
2023-04-19T07:36:14.683Z,470.00
2023-04-19T07:37:14.698Z,476.00
2023-04-19T07:38:14.723Z,476.00
2023-04-19T07:39:14.737Z,476.00
2023-04-19T07:40:14.799Z,477.00
2023-04-19T07:41:14.816Z,479.00
2023-04-19T07:42:14.869Z,482.00
2023-04-19T07:43:14.836Z,479.00
2023-04-19T07:44:15.235Z,480.00
2023-04-19T07:45:14.885Z,482.00
2023-04-19T07:46:14.999Z,481.00
2023-04-19T07:47:14.987Z,481.00
2023-04-19T07:48:14.971Z,483.00
2023-04-19T07:49:15.017Z,483.00
2023-04-19T07:50:15.047Z,484.00
2023-04-19T07:51:15.014Z,482.00
2023-04-19T07:52:15.027Z,480.00
2023-04-19T07:53:15.053Z,480.00
2023-04-19T07:54:15.333Z,483.00
2023-04-19T07:55:15.062Z,484.00
2023-04-19T07:56:15.099Z,484.00
2023-04-19T07:57:15.116Z,486.00
2023-04-19T07:58:15.200Z,487.00
2023-04-19T07:59:15.205Z,487.00
2023-04-19T08:00:15.220Z,485.00
2023-04-19T08:01:15.188Z,486.00
2023-04-19T08:02:15.296Z,488.00
2023-04-19T08:03:15.408Z,488.00
2023-04-19T08:04:15.619Z,489.00
2023-04-19T08:05:15.363Z,488.00
2023-04-19T08:06:15.851Z,488.00
2023-04-19T08:07:15.491Z,486.00
2023-04-19T08:08:15.323Z,485.00
2023-04-19T08:09:15.323Z,483.00
2023-04-19T08:10:15.371Z,485.00
2023-04-19T08:11:15.334Z,484.00
2023-04-19T08:12:30.440Z,485.00
2023-04-19T08:13:16.425Z,486.00
2023-04-19T08:14:28.309Z,488.00
2023-04-19T08:16:48.191Z,487.00
2023-04-19T08:18:15.506Z,486.00
2023-04-19T08:19:15.481Z,485.00
2023-04-19T08:20:15.551Z,486.00
2023-04-19T08:21:15.522Z,485.00
2023-04-19T08:22:15.550Z,482.00
2023-04-19T08:23:23.961Z,484.00
2023-04-19T08:24:16.724Z,481.00
2023-04-19T08:25:15.604Z,483.00
2023-04-19T08:26:15.621Z,483.00
2023-04-19T08:27:15.787Z,484.00
2023-04-19T08:28:15.661Z,483.00
2023-04-19T08:29:15.928Z,483.00
2023-04-19T08:30:15.702Z,482.00
2023-04-19T08:31:15.713Z,481.00
2023-04-19T08:32:15.798Z,481.00
2023-04-19T08:33:16.064Z,481.00
2023-04-19T08:34:15.756Z,480.00
2023-04-19T08:35:15.893Z,480.00
2023-04-19T08:36:19.443Z,479.00
2023-04-19T08:37:16.789Z,479.00
2023-04-19T08:38:15.798Z,479.00
2023-04-19T08:39:28.972Z,479.00
2023-04-19T08:40:16.863Z,480.00
2023-04-19T08:41:15.838Z,481.00
2023-04-19T08:43:15.873Z,483.00
2023-04-19T08:44:17.802Z,483.00
2023-04-19T08:45:27.939Z,484.00
2023-04-19T08:46:17.078Z,484.00
2023-04-19T08:47:26.988Z,486.00
2023-04-19T08:48:17.123Z,488.00
2023-04-19T08:49:16.076Z,487.00
2023-04-19T08:50:31.122Z,486.00
2023-04-19T08:51:17.032Z,486.00
2023-04-19T08:52:16.053Z,490.00
2023-04-19T08:53:24.634Z,489.00
2023-04-19T08:54:20.016Z,499.00
2023-04-19T08:55:16.065Z,479.00
2023-04-19T08:56:24.375Z,470.00
2023-04-19T08:57:17.586Z,467.00
2023-04-19T08:58:28.630Z,465.00
2023-04-19T08:59:18.810Z,456.00
2023-04-19T09:00:16.254Z,456.00
2023-04-19T09:01:30.386Z,447.00
2023-04-19T09:02:17.519Z,452.00
2023-04-19T09:03:16.507Z,454.00
2023-04-19T09:05:16.648Z,449.00
2023-04-19T09:06:16.798Z,452.00
2023-04-19T09:07:17.471Z,445.00
2023-04-19T09:08:16.768Z,445.00
2023-04-19T09:09:33.114Z,442.00
2023-04-19T09:10:17.988Z,439.00
2023-04-19T09:11:17.046Z,441.00
2023-04-19T09:12:17.163Z,438.00
2023-04-19T09:13:17.571Z,437.00
2023-04-19T09:14:17.625Z,439.00
2023-04-19T09:15:17.450Z,442.00
2023-04-19T09:16:17.868Z,439.00
2023-04-19T09:17:17.772Z,442.00
2023-04-19T09:18:17.901Z,441.00
2023-04-19T09:19:24.290Z,445.00
2023-04-19T09:20:18.978Z,453.00
2023-04-19T09:21:18.040Z,458.00
2023-04-19T09:22:18.244Z,465.00
2023-04-19T09:23:18.131Z,468.00
2023-04-19T09:24:18.173Z,474.00
2023-04-19T09:25:41.439Z,480.00
2023-04-19T09:26:23.342Z,485.00
2023-04-19T09:27:20.884Z,493.00
2023-04-19T09:28:18.524Z,503.00
2023-04-19T09:29:18.867Z,511.00
2023-04-19T09:30:30.078Z,515.00
2023-04-19T09:31:38.963Z,522.00
2023-04-19T09:32:19.703Z,525.00
2023-04-19T09:33:19.032Z,522.00
2023-04-19T09:34:18.775Z,513.00
2023-04-19T09:35:18.773Z,507.00
2023-04-19T09:36:18.868Z,498.00
2023-04-19T09:37:33.036Z,497.00
2023-04-19T09:38:19.912Z,495.00
2023-04-19T09:39:18.957Z,491.00
2023-04-19T09:43:07.349Z,506.00
2023-04-19T09:44:15.574Z,506.00
2023-04-19T09:45:57.315Z,509.00
2023-04-19T09:46:57.372Z,511.00
2023-04-19T09:47:57.363Z,513.00
2023-04-19T09:48:57.632Z,515.00
2023-04-19T09:49:57.214Z,518.00
2023-04-19T09:51:01.929Z,519.00
2023-04-19T09:51:58.185Z,518.00
2023-04-19T09:52:57.184Z,519.00
2023-04-19T09:53:57.141Z,519.00
2023-04-19T09:54:57.105Z,521.00
2023-04-19T09:56:02.185Z,524.00
2023-04-19T09:57:00.113Z,525.00
2023-04-19T09:57:57.085Z,524.00
2023-04-19T09:59:20.041Z,524.00
2023-04-19T09:59:58.141Z,524.00
2023-04-19T10:01:57.278Z,524.00
2023-04-19T10:02:57.495Z,523.00
2023-04-19T10:03:59.218Z,523.00
2023-04-19T10:05:57.587Z,522.00
2023-04-19T10:07:19.424Z,522.00
2023-04-19T10:08:00.114Z,519.00
2023-04-19T10:08:57.100Z,518.00
2023-04-19T10:10:02.239Z,516.00
2023-04-19T10:10:59.155Z,515.00
2023-04-19T10:12:03.801Z,513.00
2023-04-19T10:13:11.543Z,514.00
2023-04-19T10:13:58.583Z,516.00
2023-04-19T10:14:56.950Z,517.00
2023-04-19T10:16:04.555Z,520.00
2023-04-19T10:17:01.134Z,520.00
2023-04-19T10:17:56.836Z,523.00
2023-04-19T10:18:56.779Z,524.00
2023-04-19T10:19:56.674Z,525.00
2023-04-19T10:20:56.639Z,523.00
2023-04-19T10:21:58.574Z,525.00
2023-04-19T10:22:56.594Z,521.00
2023-04-19T10:23:56.556Z,519.00
2023-04-19T10:24:56.541Z,520.00
2023-04-19T10:25:56.482Z,519.00
2023-04-19T10:26:59.029Z,517.00
2023-04-19T10:27:56.643Z,517.00
2023-04-19T10:28:56.689Z,517.00
2023-04-19T10:29:57.658Z,515.00
2023-04-19T10:30:56.721Z,514.00
2023-04-19T10:31:56.803Z,514.00
2023-04-19T10:32:56.886Z,514.00
2023-04-19T10:33:56.739Z,515.00
2023-04-19T10:34:56.744Z,516.00
2023-04-19T10:35:56.799Z,518.00
2023-04-19T10:36:56.790Z,516.00
2023-04-19T10:37:57.652Z,516.00
2023-04-19T10:38:56.777Z,516.00
2023-04-19T10:39:56.790Z,516.00
2023-04-19T10:40:56.814Z,517.00
2023-04-19T10:41:57.084Z,515.00
2023-04-19T10:42:56.850Z,515.00
2023-04-19T10:43:56.818Z,515.00
2023-04-19T10:44:56.805Z,517.00
2023-04-19T10:45:56.867Z,517.00
2023-04-19T10:46:56.821Z,517.00
2023-04-19T10:47:56.857Z,515.00
2023-04-19T10:48:56.840Z,516.00
2023-04-19T10:49:56.848Z,517.00
2023-04-19T10:50:56.820Z,515.00
2023-04-19T10:52:11.189Z,513.00
2023-04-19T10:52:56.755Z,511.00
2023-04-19T10:53:56.828Z,514.00
2023-04-19T10:54:56.733Z,512.00
2023-04-19T10:55:56.709Z,513.00
2023-04-19T10:56:56.665Z,514.00
2023-04-19T10:57:56.642Z,514.00
2023-04-19T10:58:56.532Z,515.00
2023-04-19T10:59:56.501Z,515.00
2023-04-19T11:00:56.496Z,517.00
2023-04-19T11:01:56.736Z,517.00
2023-04-19T11:02:56.518Z,519.00
2023-04-19T11:03:56.476Z,519.00
2023-04-19T11:04:56.313Z,518.00
2023-04-19T11:05:56.305Z,519.00
2023-04-19T11:06:56.247Z,519.00
2023-04-19T11:07:56.162Z,521.00
2023-04-19T11:08:56.104Z,521.00
2023-04-19T11:09:56.089Z,521.00
2023-04-19T11:10:56.068Z,520.00
2023-04-19T11:11:55.974Z,520.00
2023-04-19T11:12:56.003Z,518.00
2023-04-19T11:13:55.906Z,519.00
2023-04-19T11:14:55.891Z,520.00
2023-04-19T11:15:55.880Z,518.00
2023-04-19T11:16:55.991Z,517.00
2023-04-19T11:18:11.277Z,517.00
2023-04-19T11:18:56.669Z,515.00
2023-04-19T11:19:55.656Z,514.00
2023-04-19T11:20:55.575Z,513.00
2023-04-19T11:21:55.557Z,512.00
2023-04-19T11:22:55.588Z,509.00
2023-04-19T11:23:55.472Z,508.00
2023-04-19T11:24:55.376Z,508.00
2023-04-19T11:25:55.320Z,508.00
2023-04-19T11:26:55.650Z,506.00
2023-04-19T11:27:55.197Z,506.00
2023-04-19T11:28:55.158Z,507.00
2023-04-19T11:29:55.185Z,505.00
2023-04-19T11:30:55.166Z,503.00
2023-04-19T11:31:55.228Z,504.00
2023-04-19T11:32:55.153Z,504.00
2023-04-19T11:33:55.267Z,505.00
2023-04-19T11:34:55.164Z,505.00
2023-04-19T11:35:55.098Z,505.00
2023-04-19T11:36:55.129Z,504.00
2023-04-19T11:37:55.104Z,502.00
2023-04-19T11:38:55.160Z,499.00
2023-04-19T11:39:55.059Z,498.00
2023-04-19T11:40:54.957Z,498.00
2023-04-19T11:41:54.937Z,501.00
2023-04-19T11:42:54.883Z,503.00
2023-04-19T11:43:54.805Z,505.00
2023-04-19T11:44:54.814Z,504.00
2023-04-19T11:45:54.735Z,505.00
2023-04-19T11:46:55.176Z,505.00
2023-04-19T11:47:54.623Z,506.00
2023-04-19T11:48:54.531Z,508.00
2023-04-19T11:49:54.533Z,506.00
2023-04-19T11:50:54.560Z,506.00
2023-04-19T11:51:54.606Z,508.00
2023-04-19T11:52:54.566Z,506.00
2023-04-19T11:53:54.581Z,506.00
2023-04-19T11:54:54.519Z,504.00
2023-04-19T11:55:54.593Z,503.00
2023-04-19T11:56:54.643Z,503.00
2023-04-19T11:57:54.512Z,505.00
2023-04-19T11:58:54.561Z,503.00
2023-04-19T11:59:54.518Z,503.00
2023-04-19T12:00:55.542Z,505.00
2023-04-19T12:01:54.553Z,506.00
2023-04-19T12:02:54.747Z,504.00
2023-04-19T12:03:54.731Z,503.00
2023-04-19T12:04:54.671Z,502.00
2023-04-19T12:05:54.575Z,503.00
2023-04-19T12:06:54.525Z,504.00
2023-04-19T12:07:54.491Z,504.00
2023-04-19T12:08:54.503Z,503.00
2023-04-19T12:09:54.500Z,504.00
2023-04-19T12:10:54.517Z,503.00
2023-04-19T12:11:54.563Z,503.00
2023-04-19T12:12:54.455Z,503.00
2023-04-19T12:13:54.577Z,504.00
2023-04-19T12:14:55.053Z,504.00
2023-04-19T12:15:54.445Z,503.00
2023-04-19T12:16:56.218Z,500.00
2023-04-19T12:17:57.384Z,499.00
2023-04-19T12:18:54.396Z,500.00
2023-04-19T12:19:54.342Z,501.00
2023-04-19T12:20:54.364Z,500.00
2023-04-19T12:21:54.247Z,501.00
2023-04-19T12:22:54.193Z,504.00
2023-04-19T12:23:54.151Z,505.00
2023-04-19T12:24:54.247Z,504.00
2023-04-19T12:25:54.035Z,505.00
2023-04-19T12:27:04.243Z,506.00
2023-04-19T12:27:55.154Z,507.00
2023-04-19T12:28:53.948Z,505.00
2023-04-19T12:29:53.860Z,506.00
2023-04-19T12:30:53.794Z,506.00
2023-04-19T12:31:53.946Z,507.00
2023-04-19T12:32:53.728Z,507.00
2023-04-19T12:33:53.703Z,507.00
2023-04-19T12:34:53.587Z,506.00
2023-04-19T12:35:53.533Z,504.00
2023-04-19T12:36:53.519Z,505.00
2023-04-19T12:37:53.435Z,502.00
2023-04-19T12:38:53.397Z,501.00